sensor_id;sensor_type;location;lat;lon;timestamp;P1;durP1;ratioP1;P2;durP2;ratioP2
64401;SDS011;50724;42.376;23.768;2023-11-21T00:01:50;7.35;;;2.58;;
64401;SDS011;50724;42.376;23.768;2023-11-21T00:04:52;4.90;;;2.00;;
64401;SDS011;50724;42.376;23.768;2023-11-21T00:07:52;4.47;;;1.63;;
64401;SDS011;50724;42.376;23.768;2023-11-21T00:11:03;2.65;;;1.13;;
64401;SDS011;50724;42.376;23.768;2023-11-21T00:14:05;2.70;;;1.00;;
64401;SDS011;50724;42.376;23.768;2023-11-21T00:17:06;3.88;;;1.08;;
64401;SDS011;50724;42.376;23.768;2023-11-21T00:20:06;2.75;;;1.10;;
64401;SDS011;50724;42.376;23.768;2023-11-21T00:23:07;3.28;;;1.27;;
64401;SDS011;50724;42.376;23.768;2023-11-21T00:26:09;1.83;;;1.08;;
64401;SDS011;50724;42.376;23.768;2023-11-21T00:29:09;2.92;;;1.17;;
64401;SDS011;50724;42.376;23.768;2023-11-21T00:32:10;3.90;;;1.02;;
64401;SDS011;50724;42.376;23.768;2023-11-21T00:35:11;3.25;;;1.05;;
64401;SDS011;50724;42.376;23.768;2023-11-21T00:38:11;4.22;;;0.95;;
64401;SDS011;50724;42.376;23.768;2023-11-21T00:41:12;2.88;;;1.20;;
64401;SDS011;50724;42.376;23.768;2023-11-21T00:44:12;2.35;;;0.80;;
64401;SDS011;50724;42.376;23.768;2023-11-21T00:47:13;2.15;;;1.00;;
64401;SDS011;50724;42.376;23.768;2023-11-21T00:50:13;3.85;;;1.15;;
64401;SDS011;50724;42.376;23.768;2023-11-21T00:53:14;2.03;;;0.98;;
64401;SDS011;50724;42.376;23.768;2023-11-21T00:56:14;3.00;;;1.08;;
64401;SDS011;50724;42.376;23.768;2023-11-21T00:59:15;3.25;;;1.10;;
64401;SDS011;50724;42.376;23.768;2023-11-21T01:02:15;2.70;;;1.25;;
64401;SDS011;50724;42.376;23.768;2023-11-21T01:05:33;1.85;;;0.80;;
64401;SDS011;50724;42.376;23.768;2023-11-21T01:11:35;2.92;;;1.00;;
64401;SDS011;50724;42.376;23.768;2023-11-21T01:14:37;2.17;;;1.00;;
64401;SDS011;50724;42.376;23.768;2023-11-21T01:17:38;3.00;;;1.38;;
64401;SDS011;50724;42.376;23.768;2023-11-21T01:20:47;2.55;;;1.23;;
64401;SDS011;50724;42.376;23.768;2023-11-21T01:23:47;2.30;;;1.10;;
64401;SDS011;50724;42.376;23.768;2023-11-21T01:26:47;3.30;;;1.17;;
64401;SDS011;50724;42.376;23.768;2023-11-21T01:29:48;2.70;;;1.05;;
64401;SDS011;50724;42.376;23.768;2023-11-21T01:32:48;2.10;;;1.10;;
64401;SDS011;50724;42.376;23.768;2023-11-21T01:35:49;3.13;;;1.13;;
64401;SDS011;50724;42.376;23.768;2023-11-21T01:38:49;2.40;;;1.00;;
64401;SDS011;50724;42.376;23.768;2023-11-21T01:41:50;2.35;;;1.08;;
64401;SDS011;50724;42.376;23.768;2023-11-21T01:44:52;2.55;;;1.20;;
64401;SDS011;50724;42.376;23.768;2023-11-21T01:47:53;2.53;;;1.00;;
64401;SDS011;50724;42.376;23.768;2023-11-21T01:50:53;2.17;;;0.98;;
64401;SDS011;50724;42.376;23.768;2023-11-21T01:53:54;2.25;;;1.10;;
64401;SDS011;50724;42.376;23.768;2023-11-21T01:56:55;1.80;;;1.00;;
64401;SDS011;50724;42.376;23.768;2023-11-21T01:59:56;1.80;;;0.98;;
64401;SDS011;50724;42.376;23.768;2023-11-21T02:03:01;0.68;;;0.60;;
64401;SDS011;50724;42.376;23.768;2023-11-21T02:06:02;2.25;;;0.90;;
64401;SDS011;50724;42.376;23.768;2023-11-21T02:09:03;1.70;;;0.82;;
64401;SDS011;50724;42.376;23.768;2023-11-21T02:12:04;0.60;;;0.60;;
64401;SDS011;50724;42.376;23.768;2023-11-21T02:15:15;0.90;;;0.80;;
64401;SDS011;50724;42.376;23.768;2023-11-21T02:18:26;2.28;;;1.13;;
64401;SDS011;50724;42.376;23.768;2023-11-21T02:21:28;2.13;;;1.10;;
64401;SDS011;50724;42.376;23.768;2023-11-21T02:24:30;1.73;;;1.00;;
64401;SDS011;50724;42.376;23.768;2023-11-21T02:27:31;1.02;;;0.77;;
64401;SDS011;50724;42.376;23.768;2023-11-21T02:30:32;2.27;;;1.07;;
64401;SDS011;50724;42.376;23.768;2023-11-21T02:33:32;2.60;;;1.10;;
64401;SDS011;50724;42.376;23.768;2023-11-21T02:36:34;1.45;;;0.93;;
64401;SDS011;50724;42.376;23.768;2023-11-21T02:39:34;3.17;;;1.00;;
64401;SDS011;50724;42.376;23.768;2023-11-21T02:42:35;2.60;;;1.00;;
64401;SDS011;50724;42.376;23.768;2023-11-21T02:45:35;3.03;;;1.13;;
64401;SDS011;50724;42.376;23.768;2023-11-21T02:48:36;1.23;;;0.90;;
64401;SDS011;50724;42.376;23.768;2023-11-21T02:51:37;1.65;;;0.90;;
64401;SDS011;50724;42.376;23.768;2023-11-21T02:54:40;2.72;;;1.00;;
64401;SDS011;50724;42.376;23.768;2023-11-21T02:57:40;0.63;;;0.63;;
64401;SDS011;50724;42.376;23.768;2023-11-21T03:00:41;1.95;;;0.70;;
64401;SDS011;50724;42.376;23.768;2023-11-21T03:03:41;1.48;;;0.80;;
64401;SDS011;50724;42.376;23.768;2023-11-21T03:06:42;1.45;;;0.90;;
64401;SDS011;50724;42.376;23.768;2023-11-21T03:09:43;1.13;;;0.75;;
64401;SDS011;50724;42.376;23.768;2023-11-21T03:12:44;1.90;;;0.80;;
64401;SDS011;50724;42.376;23.768;2023-11-21T03:15:44;1.77;;;0.90;;
64401;SDS011;50724;42.376;23.768;2023-11-21T03:18:45;1.60;;;0.70;;
64401;SDS011;50724;42.376;23.768;2023-11-21T03:21:45;0.60;;;0.60;;
64401;SDS011;50724;42.376;23.768;2023-11-21T03:24:46;0.55;;;0.50;;
64401;SDS011;50724;42.376;23.768;2023-11-21T03:27:46;1.75;;;0.80;;
64401;SDS011;50724;42.376;23.768;2023-11-21T03:30:47;1.77;;;0.80;;
64401;SDS011;50724;42.376;23.768;2023-11-21T03:33:47;1.45;;;0.77;;
64401;SDS011;50724;42.376;23.768;2023-11-21T03:36:48;2.05;;;1.00;;
64401;SDS011;50724;42.376;23.768;2023-11-21T03:39:48;2.17;;;0.80;;
64401;SDS011;50724;42.376;23.768;2023-11-21T03:42:49;1.63;;;1.00;;
64401;SDS011;50724;42.376;23.768;2023-11-21T03:45:50;1.83;;;0.93;;
64401;SDS011;50724;42.376;23.768;2023-11-21T03:48:51;1.60;;;0.70;;
64401;SDS011;50724;42.376;23.768;2023-11-21T03:51:51;1.80;;;0.50;;
64401;SDS011;50724;42.376;23.768;2023-11-21T03:54:52;2.72;;;0.95;;
64401;SDS011;50724;42.376;23.768;2023-11-21T03:57:52;1.65;;;0.80;;
64401;SDS011;50724;42.376;23.768;2023-11-21T04:00:52;0.90;;;0.57;;
64401;SDS011;50724;42.376;23.768;2023-11-21T04:03:53;1.73;;;1.10;;
64401;SDS011;50724;42.376;23.768;2023-11-21T04:07:02;1.00;;;0.90;;
64401;SDS011;50724;42.376;23.768;2023-11-21T04:10:03;1.33;;;0.80;;
64401;SDS011;50724;42.376;23.768;2023-11-21T04:13:08;1.70;;;0.88;;
64401;SDS011;50724;42.376;23.768;2023-11-21T04:16:09;0.82;;;0.60;;
64401;SDS011;50724;42.376;23.768;2023-11-21T04:19:10;2.20;;;0.77;;
64401;SDS011;50724;42.376;23.768;2023-11-21T04:22:10;0.88;;;0.65;;
64401;SDS011;50724;42.376;23.768;2023-11-21T04:25:11;0.77;;;0.73;;
64401;SDS011;50724;42.376;23.768;2023-11-21T04:28:14;1.88;;;0.90;;
64401;SDS011;50724;42.376;23.768;2023-11-21T04:31:17;0.95;;;0.80;;
64401;SDS011;50724;42.376;23.768;2023-11-21T04:34:18;2.22;;;0.90;;
64401;SDS011;50724;42.376;23.768;2023-11-21T04:37:18;1.55;;;0.70;;
64401;SDS011;50724;42.376;23.768;2023-11-21T04:40:19;0.63;;;0.40;;
64401;SDS011;50724;42.376;23.768;2023-11-21T04:43:20;1.42;;;0.52;;
64401;SDS011;50724;42.376;23.768;2023-11-21T04:46:21;2.85;;;0.77;;
64401;SDS011;50724;42.376;23.768;2023-11-21T04:49:21;0.98;;;0.70;;
64401;SDS011;50724;42.376;23.768;2023-11-21T04:52:30;3.58;;;1.45;;
64401;SDS011;50724;42.376;23.768;2023-11-21T04:55:31;3.25;;;1.05;;
64401;SDS011;50724;42.376;23.768;2023-11-21T04:58:31;4.57;;;1.20;;
64401;SDS011;50724;42.376;23.768;2023-11-21T05:01:33;1.85;;;0.98;;
64401;SDS011;50724;42.376;23.768;2023-11-21T05:04:33;1.40;;;0.85;;
64401;SDS011;50724;42.376;23.768;2023-11-21T05:07:33;3.15;;;0.95;;
64401;SDS011;50724;42.376;23.768;2023-11-21T05:10:35;1.75;;;0.90;;
64401;SDS011;50724;42.376;23.768;2023-11-21T05:13:38;1.10;;;0.90;;
64401;SDS011;50724;42.376;23.768;2023-11-21T05:16:39;1.10;;;0.75;;
64401;SDS011;50724;42.376;23.768;2023-11-21T05:19:39;1.83;;;0.68;;
64401;SDS011;50724;42.376;23.768;2023-11-21T05:22:40;1.38;;;0.57;;
64401;SDS011;50724;42.376;23.768;2023-11-21T05:25:42;1.35;;;0.63;;
64401;SDS011;50724;42.376;23.768;2023-11-21T05:28:42;2.95;;;1.80;;
64401;SDS011;50724;42.376;23.768;2023-11-21T05:31:42;6.20;;;2.80;;
64401;SDS011;50724;42.376;23.768;2023-11-21T05:34:43;1.98;;;1.00;;
64401;SDS011;50724;42.376;23.768;2023-11-21T05:37:44;1.35;;;0.82;;
64401;SDS011;50724;42.376;23.768;2023-11-21T05:40:45;2.47;;;1.40;;
64401;SDS011;50724;42.376;23.768;2023-11-21T05:43:46;4.50;;;1.60;;
64401;SDS011;50724;42.376;23.768;2023-11-21T05:46:46;2.50;;;1.30;;
64401;SDS011;50724;42.376;23.768;2023-11-21T05:49:46;1.88;;;1.02;;
64401;SDS011;50724;42.376;23.768;2023-11-21T05:52:50;1.10;;;0.80;;
64401;SDS011;50724;42.376;23.768;2023-11-21T05:55:50;1.23;;;0.80;;
64401;SDS011;50724;42.376;23.768;2023-11-21T05:58:51;0.73;;;0.70;;
64401;SDS011;50724;42.376;23.768;2023-11-21T06:01:52;6.15;;;2.05;;
64401;SDS011;50724;42.376;23.768;2023-11-21T06:04:53;1.30;;;0.70;;
64401;SDS011;50724;42.376;23.768;2023-11-21T06:07:54;1.88;;;1.05;;
64401;SDS011;50724;42.376;23.768;2023-11-21T06:11:01;2.60;;;1.10;;
64401;SDS011;50724;42.376;23.768;2023-11-21T06:14:02;0.80;;;0.45;;
64401;SDS011;50724;42.376;23.768;2023-11-21T06:17:02;2.42;;;0.73;;
64401;SDS011;50724;42.376;23.768;2023-11-21T06:20:04;8.68;;;2.85;;
64401;SDS011;50724;42.376;23.768;2023-11-21T06:23:09;6.25;;;2.10;;
64401;SDS011;50724;42.376;23.768;2023-11-21T06:26:09;2.17;;;1.20;;
64401;SDS011;50724;42.376;23.768;2023-11-21T06:29:10;3.15;;;1.45;;
64401;SDS011;50724;42.376;23.768;2023-11-21T06:32:11;11.57;;;4.45;;
64401;SDS011;50724;42.376;23.768;2023-11-21T06:35:11;12.18;;;4.50;;
64401;SDS011;50724;42.376;23.768;2023-11-21T06:38:13;8.40;;;3.15;;
64401;SDS011;50724;42.376;23.768;2023-11-21T06:41:13;7.13;;;3.05;;
64401;SDS011;50724;42.376;23.768;2023-11-21T06:44:15;4.80;;;1.90;;
64401;SDS011;50724;42.376;23.768;2023-11-21T06:47:15;7.85;;;3.30;;
64401;SDS011;50724;42.376;23.768;2023-11-21T06:50:16;1.33;;;0.93;;
64401;SDS011;50724;42.376;23.768;2023-11-21T06:53:16;2.63;;;1.20;;
64401;SDS011;50724;42.376;23.768;2023-11-21T06:56:17;2.65;;;1.10;;
64401;SDS011;50724;42.376;23.768;2023-11-21T06:59:18;2.97;;;1.00;;
64401;SDS011;50724;42.376;23.768;2023-11-21T07:02:19;1.38;;;0.80;;
64401;SDS011;50724;42.376;23.768;2023-11-21T07:05:20;5.10;;;1.30;;
64401;SDS011;50724;42.376;23.768;2023-11-21T07:08:22;4.53;;;1.70;;
64401;SDS011;50724;42.376;23.768;2023-11-21T07:11:22;3.90;;;2.63;;
64401;SDS011;50724;42.376;23.768;2023-11-21T07:14:23;1.92;;;0.93;;
64401;SDS011;50724;42.376;23.768;2023-11-21T07:17:23;3.00;;;1.50;;
64401;SDS011;50724;42.376;23.768;2023-11-21T07:20:33;3.35;;;1.88;;
64401;SDS011;50724;42.376;23.768;2023-11-21T07:23:33;2.47;;;1.17;;
64401;SDS011;50724;42.376;23.768;2023-11-21T07:26:34;1.67;;;1.00;;
64401;SDS011;50724;42.376;23.768;2023-11-21T07:29:35;2.63;;;1.20;;
64401;SDS011;50724;42.376;23.768;2023-11-21T07:32:35;3.60;;;1.95;;
64401;SDS011;50724;42.376;23.768;2023-11-21T07:35:37;4.40;;;2.17;;
64401;SDS011;50724;42.376;23.768;2023-11-21T07:38:37;14.68;;;11.20;;
64401;SDS011;50724;42.376;23.768;2023-11-21T07:41:38;7.03;;;2.70;;
64401;SDS011;50724;42.376;23.768;2023-11-21T07:44:45;3.35;;;1.27;;
64401;SDS011;50724;42.376;23.768;2023-11-21T07:47:46;3.95;;;2.13;;
64401;SDS011;50724;42.376;23.768;2023-11-21T07:50:46;3.25;;;1.20;;
64401;SDS011;50724;42.376;23.768;2023-11-21T07:53:47;1.52;;;0.80;;
64401;SDS011;50724;42.376;23.768;2023-11-21T07:56:48;1.77;;;1.13;;
64401;SDS011;50724;42.376;23.768;2023-11-21T07:59:48;4.45;;;3.17;;
64401;SDS011;50724;42.376;23.768;2023-11-21T08:02:49;2.42;;;0.90;;
64401;SDS011;50724;42.376;23.768;2023-11-21T08:05:50;1.17;;;0.80;;
64401;SDS011;50724;42.376;23.768;2023-11-21T08:08:51;3.93;;;1.70;;
64401;SDS011;50724;42.376;23.768;2023-11-21T08:11:51;3.50;;;1.40;;
64401;SDS011;50724;42.376;23.768;2023-11-21T08:14:53;5.70;;;2.95;;
64401;SDS011;50724;42.376;23.768;2023-11-21T08:17:53;1.55;;;1.10;;
64401;SDS011;50724;42.376;23.768;2023-11-21T08:20:54;3.03;;;1.52;;
64401;SDS011;50724;42.376;23.768;2023-11-21T08:23:55;9.50;;;5.68;;
64401;SDS011;50724;42.376;23.768;2023-11-21T08:26:55;5.35;;;2.80;;
64401;SDS011;50724;42.376;23.768;2023-11-21T08:29:56;5.50;;;3.22;;
64401;SDS011;50724;42.376;23.768;2023-11-21T08:32:57;4.90;;;2.60;;
64401;SDS011;50724;42.376;23.768;2023-11-21T08:35:58;2.83;;;1.20;;
64401;SDS011;50724;42.376;23.768;2023-11-21T08:38:58;4.57;;;2.65;;
64401;SDS011;50724;42.376;23.768;2023-11-21T08:41:59;1.45;;;0.98;;
64401;SDS011;50724;42.376;23.768;2023-11-21T08:44:59;3.33;;;1.10;;
64401;SDS011;50724;42.376;23.768;2023-11-21T08:48:00;2.10;;;0.98;;
64401;SDS011;50724;42.376;23.768;2023-11-21T08:51:02;4.20;;;1.15;;
64401;SDS011;50724;42.376;23.768;2023-11-21T08:54:04;2.95;;;1.42;;
64401;SDS011;50724;42.376;23.768;2023-11-21T08:57:08;4.63;;;2.10;;
64401;SDS011;50724;42.376;23.768;2023-11-21T09:00:09;3.40;;;1.00;;
64401;SDS011;50724;42.376;23.768;2023-11-21T09:03:12;7.00;;;2.47;;
64401;SDS011;50724;42.376;23.768;2023-11-21T09:06:13;5.95;;;2.80;;
64401;SDS011;50724;42.376;23.768;2023-11-21T09:09:14;3.72;;;1.95;;
64401;SDS011;50724;42.376;23.768;2023-11-21T09:12:15;6.43;;;3.33;;
64401;SDS011;50724;42.376;23.768;2023-11-21T09:15:16;3.55;;;1.50;;
64401;SDS011;50724;42.376;23.768;2023-11-21T09:18:16;3.95;;;1.55;;
64401;SDS011;50724;42.376;23.768;2023-11-21T09:21:16;3.58;;;1.80;;
64401;SDS011;50724;42.376;23.768;2023-11-21T09:24:17;4.13;;;1.95;;
64401;SDS011;50724;42.376;23.768;2023-11-21T09:27:18;5.85;;;1.90;;
64401;SDS011;50724;42.376;23.768;2023-11-21T09:30:19;2.85;;;1.45;;
64401;SDS011;50724;42.376;23.768;2023-11-21T09:33:20;2.47;;;1.40;;
64401;SDS011;50724;42.376;23.768;2023-11-21T09:36:22;3.22;;;1.45;;
64401;SDS011;50724;42.376;23.768;2023-11-21T09:39:26;3.65;;;1.10;;
64401;SDS011;50724;42.376;23.768;2023-11-21T09:42:30;3.03;;;1.00;;
64401;SDS011;50724;42.376;23.768;2023-11-21T09:45:36;4.10;;;1.20;;
64401;SDS011;50724;42.376;23.768;2023-11-21T09:51:40;2.05;;;1.00;;
64401;SDS011;50724;42.376;23.768;2023-11-21T09:54:43;3.53;;;1.30;;
64401;SDS011;50724;42.376;23.768;2023-11-21T09:57:45;2.10;;;1.20;;
64401;SDS011;50724;42.376;23.768;2023-11-21T10:00:46;3.60;;;1.10;;
64401;SDS011;50724;42.376;23.768;2023-11-21T10:03:47;2.75;;;1.30;;
64401;SDS011;50724;42.376;23.768;2023-11-21T10:06:48;2.05;;;1.20;;
64401;SDS011;50724;42.376;23.768;2023-11-21T10:09:50;3.33;;;1.42;;
64401;SDS011;50724;42.376;23.768;2023-11-21T10:12:54;2.85;;;1.23;;
64401;SDS011;50724;42.376;23.768;2023-11-21T10:15:56;3.88;;;1.50;;
64401;SDS011;50724;42.376;23.768;2023-11-21T10:18:58;1.88;;;1.05;;
64401;SDS011;50724;42.376;23.768;2023-11-21T10:21:59;2.10;;;1.00;;
64401;SDS011;50724;42.376;23.768;2023-11-21T10:25:01;3.85;;;1.45;;
64401;SDS011;50724;42.376;23.768;2023-11-21T10:28:03;3.67;;;1.58;;
64401;SDS011;50724;42.376;23.768;2023-11-21T10:31:07;2.15;;;1.10;;
64401;SDS011;50724;42.376;23.768;2023-11-21T10:34:18;3.75;;;1.10;;
64401;SDS011;50724;42.376;23.768;2023-11-21T10:37:19;3.60;;;1.35;;
64401;SDS011;50724;42.376;23.768;2023-11-21T10:40:20;2.33;;;1.10;;
64401;SDS011;50724;42.376;23.768;2023-11-21T10:43:21;2.65;;;1.13;;
64401;SDS011;50724;42.376;23.768;2023-11-21T10:46:25;2.97;;;1.50;;
64401;SDS011;50724;42.376;23.768;2023-11-21T10:49:27;4.72;;;1.92;;
64401;SDS011;50724;42.376;23.768;2023-11-21T10:52:37;4.93;;;1.80;;
64401;SDS011;50724;42.376;23.768;2023-11-21T10:55:39;4.72;;;1.60;;
64401;SDS011;50724;42.376;23.768;2023-11-21T10:58:39;4.03;;;1.58;;
64401;SDS011;50724;42.376;23.768;2023-11-21T11:01:42;3.72;;;1.80;;
64401;SDS011;50724;42.376;23.768;2023-11-21T11:04:44;4.60;;;1.70;;
64401;SDS011;50724;42.376;23.768;2023-11-21T11:07:46;5.03;;;1.95;;
64401;SDS011;50724;42.376;23.768;2023-11-21T11:10:54;3.42;;;1.42;;
64401;SDS011;50724;42.376;23.768;2023-11-21T11:14:03;3.00;;;1.35;;
64401;SDS011;50724;42.376;23.768;2023-11-21T11:17:04;4.85;;;1.80;;
64401;SDS011;50724;42.376;23.768;2023-11-21T11:20:06;4.68;;;1.67;;
64401;SDS011;50724;42.376;23.768;2023-11-21T11:29:56;6.75;;;2.40;;
64401;SDS011;50724;42.376;23.768;2023-11-21T11:36:32;5.15;;;2.22;;
64401;SDS011;50724;42.376;23.768;2023-11-21T11:39:38;9.60;;;3.90;;
64401;SDS011;50724;42.376;23.768;2023-11-21T11:42:57;7.55;;;3.03;;
64401;SDS011;50724;42.376;23.768;2023-11-21T11:46:02;5.00;;;1.83;;
64401;SDS011;50724;42.376;23.768;2023-11-21T11:49:03;4.88;;;2.30;;
64401;SDS011;50724;42.376;23.768;2023-11-21T11:55:41;4.80;;;2.10;;
64401;SDS011;50724;42.376;23.768;2023-11-21T11:58:41;5.35;;;2.00;;
64401;SDS011;50724;42.376;23.768;2023-11-21T12:01:44;4.72;;;1.85;;
64401;SDS011;50724;42.376;23.768;2023-11-21T12:04:46;2.97;;;1.50;;
64401;SDS011;50724;42.376;23.768;2023-11-21T12:07:47;5.05;;;1.83;;
64401;SDS011;50724;42.376;23.768;2023-11-21T12:10:49;3.05;;;1.70;;
64401;SDS011;50724;42.376;23.768;2023-11-21T12:13:54;3.33;;;1.80;;
64401;SDS011;50724;42.376;23.768;2023-11-21T12:16:54;4.30;;;1.45;;
64401;SDS011;50724;42.376;23.768;2023-11-21T12:20:01;3.55;;;1.30;;
64401;SDS011;50724;42.376;23.768;2023-11-21T12:23:04;4.65;;;2.00;;
64401;SDS011;50724;42.376;23.768;2023-11-21T12:26:05;4.78;;;2.13;;
64401;SDS011;50724;42.376;23.768;2023-11-21T12:29:06;6.90;;;2.30;;
64401;SDS011;50724;42.376;23.768;2023-11-21T12:32:16;4.78;;;2.22;;
64401;SDS011;50724;42.376;23.768;2023-11-21T12:35:22;5.65;;;2.05;;
64401;SDS011;50724;42.376;23.768;2023-11-21T12:38:24;4.70;;;2.13;;
64401;SDS011;50724;42.376;23.768;2023-11-21T12:41:24;6.05;;;2.40;;
64401;SDS011;50724;42.376;23.768;2023-11-21T12:44:25;8.10;;;2.35;;
64401;SDS011;50724;42.376;23.768;2023-11-21T12:47:26;6.80;;;2.20;;
64401;SDS011;50724;42.376;23.768;2023-11-21T12:50:27;8.95;;;3.42;;
64401;SDS011;50724;42.376;23.768;2023-11-21T12:53:31;5.53;;;2.50;;
64401;SDS011;50724;42.376;23.768;2023-11-21T12:56:39;3.50;;;1.88;;
64401;SDS011;50724;42.376;23.768;2023-11-21T12:59:40;4.40;;;2.10;;
64401;SDS011;50724;42.376;23.768;2023-11-21T13:02:42;4.45;;;1.75;;
64401;SDS011;50724;42.376;23.768;2023-11-21T13:05:43;4.50;;;1.75;;
64401;SDS011;50724;42.376;23.768;2023-11-21T13:08:45;5.05;;;2.08;;
64401;SDS011;50724;42.376;23.768;2023-11-21T13:11:46;9.10;;;2.15;;
64401;SDS011;50724;42.376;23.768;2023-11-21T13:14:47;5.32;;;2.17;;
64401;SDS011;50724;42.376;23.768;2023-11-21T13:17:47;3.45;;;1.58;;
64401;SDS011;50724;42.376;23.768;2023-11-21T13:20:57;4.13;;;1.50;;
64401;SDS011;50724;42.376;23.768;2023-11-21T13:23:59;3.17;;;1.65;;
64401;SDS011;50724;42.376;23.768;2023-11-21T13:26:59;3.53;;;1.77;;
64401;SDS011;50724;42.376;23.768;2023-11-21T13:30:00;4.45;;;2.03;;
64401;SDS011;50724;42.376;23.768;2023-11-21T13:33:03;4.45;;;1.67;;
64401;SDS011;50724;42.376;23.768;2023-11-21T13:36:08;4.20;;;1.70;;
64401;SDS011;50724;42.376;23.768;2023-11-21T13:39:22;5.20;;;1.60;;
64401;SDS011;50724;42.376;23.768;2023-11-21T13:42:22;4.30;;;1.83;;
64401;SDS011;50724;42.376;23.768;2023-11-21T13:45:25;5.60;;;1.83;;
64401;SDS011;50724;42.376;23.768;2023-11-21T13:48:27;4.53;;;1.83;;
64401;SDS011;50724;42.376;23.768;2023-11-21T13:51:50;6.55;;;2.63;;
64401;SDS011;50724;42.376;23.768;2023-11-21T13:54:54;8.00;;;3.03;;
64401;SDS011;50724;42.376;23.768;2023-11-21T13:57:56;7.38;;;2.60;;
64401;SDS011;50724;42.376;23.768;2023-11-21T14:00:57;6.38;;;2.65;;
64401;SDS011;50724;42.376;23.768;2023-11-21T14:04:01;5.38;;;1.90;;
64401;SDS011;50724;42.376;23.768;2023-11-21T14:07:19;4.43;;;1.77;;
64401;SDS011;50724;42.376;23.768;2023-11-21T14:10:31;4.57;;;2.03;;
64401;SDS011;50724;42.376;23.768;2023-11-21T14:13:40;9.20;;;3.30;;
64401;SDS011;50724;42.376;23.768;2023-11-21T14:16:45;8.68;;;3.55;;
64401;SDS011;50724;42.376;23.768;2023-11-21T14:19:46;6.43;;;2.72;;
64401;SDS011;50724;42.376;23.768;2023-11-21T14:22:47;4.70;;;2.17;;
64401;SDS011;50724;42.376;23.768;2023-11-21T14:25:56;5.95;;;2.17;;
64401;SDS011;50724;42.376;23.768;2023-11-21T14:29:06;4.90;;;1.90;;
64401;SDS011;50724;42.376;23.768;2023-11-21T14:32:08;3.78;;;1.67;;
64401;SDS011;50724;42.376;23.768;2023-11-21T14:35:09;5.63;;;1.90;;
64401;SDS011;50724;42.376;23.768;2023-11-21T14:38:09;6.53;;;1.88;;
64401;SDS011;50724;42.376;23.768;2023-11-21T14:41:10;4.25;;;2.08;;
64401;SDS011;50724;42.376;23.768;2023-11-21T14:44:11;4.25;;;1.90;;
64401;SDS011;50724;42.376;23.768;2023-11-21T14:47:12;3.85;;;1.80;;
64401;SDS011;50724;42.376;23.768;2023-11-21T14:50:16;3.03;;;1.45;;
64401;SDS011;50724;42.376;23.768;2023-11-21T14:53:34;6.10;;;2.05;;
64401;SDS011;50724;42.376;23.768;2023-11-21T14:56:52;5.40;;;1.85;;
64401;SDS011;50724;42.376;23.768;2023-11-21T14:59:52;4.30;;;1.77;;
64401;SDS011;50724;42.376;23.768;2023-11-21T15:02:57;5.03;;;1.80;;
64401;SDS011;50724;42.376;23.768;2023-11-21T15:06:02;3.88;;;1.63;;
64401;SDS011;50724;42.376;23.768;2023-11-21T15:09:18;5.15;;;1.90;;
64401;SDS011;50724;42.376;23.768;2023-11-21T15:12:34;4.25;;;1.85;;
64401;SDS011;50724;42.376;23.768;2023-11-21T15:15:38;3.42;;;1.83;;
64401;SDS011;50724;42.376;23.768;2023-11-21T15:18:39;3.60;;;1.55;;
64401;SDS011;50724;42.376;23.768;2023-11-21T15:21:40;6.25;;;1.63;;
64401;SDS011;50724;42.376;23.768;2023-11-21T15:24:40;4.13;;;1.70;;
64401;SDS011;50724;42.376;23.768;2023-11-21T15:27:42;5.78;;;1.98;;
64401;SDS011;50724;42.376;23.768;2023-11-21T15:30:43;4.78;;;1.88;;
64401;SDS011;50724;42.376;23.768;2023-11-21T15:33:46;4.18;;;1.95;;
64401;SDS011;50724;42.376;23.768;2023-11-21T15:36:47;5.05;;;1.80;;
64401;SDS011;50724;42.376;23.768;2023-11-21T15:39:50;4.50;;;1.75;;
64401;SDS011;50724;42.376;23.768;2023-11-21T15:42:51;4.03;;;1.45;;
64401;SDS011;50724;42.376;23.768;2023-11-21T15:45:51;4.18;;;1.92;;
64401;SDS011;50724;42.376;23.768;2023-11-21T15:48:52;5.45;;;2.05;;
64401;SDS011;50724;42.376;23.768;2023-11-21T15:51:54;5.20;;;1.90;;
64401;SDS011;50724;42.376;23.768;2023-11-21T15:54:57;5.13;;;1.77;;
64401;SDS011;50724;42.376;23.768;2023-11-21T15:57:58;5.70;;;1.98;;
64401;SDS011;50724;42.376;23.768;2023-11-21T16:00:58;5.35;;;1.60;;
64401;SDS011;50724;42.376;23.768;2023-11-21T16:03:59;4.35;;;2.15;;
64401;SDS011;50724;42.376;23.768;2023-11-21T16:07:00;3.10;;;1.60;;
64401;SDS011;50724;42.376;23.768;2023-11-21T16:10:02;3.92;;;1.63;;
64401;SDS011;50724;42.376;23.768;2023-11-21T16:13:04;5.60;;;1.77;;
64401;SDS011;50724;42.376;23.768;2023-11-21T16:16:04;3.90;;;1.65;;
64401;SDS011;50724;42.376;23.768;2023-11-21T16:19:05;4.20;;;1.67;;
64401;SDS011;50724;42.376;23.768;2023-11-21T16:22:05;4.67;;;1.70;;
64401;SDS011;50724;42.376;23.768;2023-11-21T16:25:06;5.45;;;1.95;;
64401;SDS011;50724;42.376;23.768;2023-11-21T16:28:12;5.15;;;2.33;;
64401;SDS011;50724;42.376;23.768;2023-11-21T16:31:13;6.05;;;2.13;;
64401;SDS011;50724;42.376;23.768;2023-11-21T16:34:22;7.05;;;2.17;;
64401;SDS011;50724;42.376;23.768;2023-11-21T16:37:22;4.70;;;2.17;;
64401;SDS011;50724;42.376;23.768;2023-11-21T16:40:22;4.95;;;2.28;;
64401;SDS011;50724;42.376;23.768;2023-11-21T16:43:23;5.53;;;2.15;;
64401;SDS011;50724;42.376;23.768;2023-11-21T16:46:23;4.67;;;1.80;;
64401;SDS011;50724;42.376;23.768;2023-11-21T16:49:24;4.33;;;1.77;;
64401;SDS011;50724;42.376;23.768;2023-11-21T16:52:26;4.13;;;1.77;;
64401;SDS011;50724;42.376;23.768;2023-11-21T16:55:27;4.85;;;1.77;;
64401;SDS011;50724;42.376;23.768;2023-11-21T16:58:27;5.05;;;1.98;;
64401;SDS011;50724;42.376;23.768;2023-11-21T17:01:29;5.45;;;1.90;;
64401;SDS011;50724;42.376;23.768;2023-11-21T17:04:30;3.90;;;1.50;;
64401;SDS011;50724;42.376;23.768;2023-11-21T17:07:34;4.68;;;1.90;;
64401;SDS011;50724;42.376;23.768;2023-11-21T17:10:34;5.28;;;1.90;;
64401;SDS011;50724;42.376;23.768;2023-11-21T17:13:35;4.40;;;1.58;;
64401;SDS011;50724;42.376;23.768;2023-11-21T17:16:35;4.77;;;1.90;;
64401;SDS011;50724;42.376;23.768;2023-11-21T17:19:38;4.10;;;1.60;;
64401;SDS011;50724;42.376;23.768;2023-11-21T17:22:39;4.18;;;2.00;;
64401;SDS011;50724;42.376;23.768;2023-11-21T17:25:40;7.00;;;2.20;;
64401;SDS011;50724;42.376;23.768;2023-11-21T17:28:41;6.55;;;1.77;;
64401;SDS011;50724;42.376;23.768;2023-11-21T17:31:45;4.32;;;1.70;;
64401;SDS011;50724;42.376;23.768;2023-11-21T17:34:45;4.05;;;1.77;;
64401;SDS011;50724;42.376;23.768;2023-11-21T17:37:48;4.25;;;1.50;;
64401;SDS011;50724;42.376;23.768;2023-11-21T17:40:48;4.00;;;1.70;;
64401;SDS011;50724;42.376;23.768;2023-11-21T17:43:49;5.80;;;2.10;;
64401;SDS011;50724;42.376;23.768;2023-11-21T17:46:49;7.00;;;1.90;;
64401;SDS011;50724;42.376;23.768;2023-11-21T17:49:50;5.88;;;1.85;;
64401;SDS011;50724;42.376;23.768;2023-11-21T17:52:53;6.85;;;2.00;;
64401;SDS011;50724;42.376;23.768;2023-11-21T17:55:55;5.35;;;2.10;;
64401;SDS011;50724;42.376;23.768;2023-11-21T17:58:55;6.97;;;1.93;;
64401;SDS011;50724;42.376;23.768;2023-11-21T18:01:56;3.13;;;1.60;;
64401;SDS011;50724;42.376;23.768;2023-11-21T18:04:57;3.85;;;1.50;;
64401;SDS011;50724;42.376;23.768;2023-11-21T18:07:59;6.03;;;2.05;;
64401;SDS011;50724;42.376;23.768;2023-11-21T18:11:00;4.38;;;1.88;;
64401;SDS011;50724;42.376;23.768;2023-11-21T18:14:01;5.07;;;2.20;;
64401;SDS011;50724;42.376;23.768;2023-11-21T18:17:09;4.05;;;1.98;;
64401;SDS011;50724;42.376;23.768;2023-11-21T18:20:09;4.78;;;1.90;;